Terminal Aerodrome Forecast
Issued by NWS

Home | Current Version | Previous Version | Graphics & Text | Print | Product List | Glossary On
Versions: 1 2 3 4 5 6 7 8 9 10 11 12 13 14 15 16
534
FTUS45 KGGW 170522
TAFSDY
TAF
KSDY 170522Z 1706/1806 22010KT P6SM BKN070
     FM170800 23010KT P6SM BKN070 WS020/27035KT
     FM171700 25017G25KT P6SM FEW070 SCT080
     FM180400 24006KT P6SM FEW011
     FM180500 24006KT P6SM FEW010=

USA.gov is the U.S. government's official web portal to all federal, state and local government web resources and services.